createdAt,value
2023-03-07T00:00:46.943Z,10.63
2023-03-07T00:03:15.625Z,8.17
2023-03-07T00:05:42.609Z,8.97
2023-03-07T00:08:10.323Z,6.60
2023-03-07T00:10:37.229Z,8.27
2023-03-07T00:13:04.837Z,8.70
2023-03-07T00:15:31.700Z,9.37
2023-03-07T00:17:58.950Z,7.27
2023-03-07T00:20:25.723Z,8.40
2023-03-07T00:22:52.474Z,7.27
2023-03-07T00:25:19.536Z,8.37
2023-03-07T00:27:46.368Z,8.60
2023-03-07T00:30:13.410Z,7.30
2023-03-07T00:32:40.274Z,7.63
2023-03-07T00:35:07.458Z,9.17
2023-03-07T00:37:34.260Z,8.60
2023-03-07T00:40:01.161Z,9.03
2023-03-07T00:42:27.944Z,8.77
2023-03-07T00:44:54.805Z,8.87
2023-03-07T00:47:22.055Z,10.20
2023-03-07T00:49:48.979Z,8.70
2023-03-07T00:52:15.740Z,8.47
2023-03-07T00:54:42.571Z,8.03
2023-03-07T00:57:09.288Z,8.77
2023-03-07T00:59:36.176Z,7.43
2023-03-07T01:02:03.244Z,8.87
2023-03-07T01:04:30.129Z,10.87
2023-03-07T01:06:56.884Z,9.63
2023-03-07T01:09:23.816Z,8.27
2023-03-07T01:11:50.654Z,8.47
2023-03-07T01:14:17.533Z,8.07
2023-03-07T01:16:44.497Z,7.57
2023-03-07T01:19:12.760Z,9.60
2023-03-07T01:21:41.805Z,8.93
2023-03-07T01:24:12.954Z,9.63
2023-03-07T01:26:39.836Z,7.87
2023-03-07T01:29:07.645Z,10.37
2023-03-07T01:31:34.990Z,8.40
2023-03-07T01:34:02.574Z,9.97
2023-03-07T01:36:33.079Z,8.17
2023-03-07T01:39:06.534Z,9.27
2023-03-07T01:41:34.887Z,8.50
2023-03-07T01:44:05.294Z,10.00
2023-03-07T01:46:54.574Z,9.70
2023-03-07T01:49:31.346Z,7.97
2023-03-07T01:52:12.856Z,10.30
2023-03-07T01:54:48.731Z,9.57
2023-03-07T01:57:18.667Z,10.07
2023-03-07T01:59:49.280Z,8.77
2023-03-07T02:02:19.600Z,8.37
2023-03-07T02:04:49.699Z,10.10
2023-03-07T02:07:19.490Z,8.97
2023-03-07T02:09:49.142Z,7.73
2023-03-07T02:12:16.286Z,8.23
2023-03-07T02:14:45.061Z,6.43
2023-03-07T02:17:12.265Z,11.77
2023-03-07T02:19:53.364Z,9.63
2023-03-07T02:22:20.372Z,8.67
2023-03-07T02:24:56.925Z,8.57
2023-03-07T02:27:25.868Z,8.60
2023-03-07T02:29:52.684Z,9.60
2023-03-07T02:32:19.660Z,9.37
2023-03-07T02:34:46.588Z,8.73
2023-03-07T02:37:18.382Z,8.73
2023-03-07T02:39:47.046Z,11.63
2023-03-07T02:42:37.531Z,7.37
2023-03-07T02:45:09.994Z,9.70
2023-03-07T02:47:36.938Z,7.30
2023-03-07T02:50:04.805Z,7.83
2023-03-07T02:52:32.276Z,7.43
2023-03-07T02:54:59.141Z,8.50
2023-03-07T02:57:25.906Z,7.47
2023-03-07T02:59:52.632Z,9.03
2023-03-07T03:02:19.534Z,7.00
2023-03-07T03:04:46.542Z,7.57
2023-03-07T03:07:13.390Z,6.57
2023-03-07T03:09:40.098Z,11.37
2023-03-07T03:12:07.305Z,9.20
2023-03-07T03:14:34.082Z,9.23
2023-03-07T03:17:01.028Z,8.63
2023-03-07T03:19:29.709Z,9.90
2023-03-07T03:21:57.275Z,7.87
2023-03-07T03:24:24.069Z,8.83
2023-03-07T03:26:50.785Z,7.03
2023-03-07T03:29:17.535Z,9.07
2023-03-07T03:31:45.233Z,9.13
2023-03-07T03:34:14.063Z,8.77
2023-03-07T03:36:40.925Z,7.50
2023-03-07T03:39:10.934Z,7.90
2023-03-07T03:41:38.227Z,7.30
2023-03-07T03:44:04.916Z,9.10
2023-03-07T03:46:32.029Z,6.67
2023-03-07T03:48:58.885Z,8.57
2023-03-07T03:51:25.708Z,8.13
2023-03-07T03:53:53.015Z,9.13
2023-03-07T03:56:22.211Z,8.40
2023-03-07T03:58:51.614Z,8.43
2023-03-07T04:01:20.360Z,6.60
2023-03-07T04:03:51.566Z,7.13
2023-03-07T04:06:22.109Z,7.07
2023-03-07T04:08:49.730Z,8.00
2023-03-07T04:11:16.472Z,7.20
2023-03-07T04:13:43.533Z,6.87
2023-03-07T04:16:10.463Z,8.13
2023-03-07T04:18:37.407Z,7.60
2023-03-07T04:21:05.959Z,5.60
2023-03-07T04:23:33.808Z,7.30
2023-03-07T04:26:02.794Z,8.77
2023-03-07T04:28:49.055Z,7.83
2023-03-07T04:31:24.076Z,7.40
2023-03-07T04:33:51.617Z,7.70
2023-03-07T04:36:18.844Z,8.30
2023-03-07T04:38:47.044Z,6.60
2023-03-07T04:41:15.874Z,8.27
2023-03-07T04:43:43.201Z,7.37
2023-03-07T04:46:12.879Z,8.07
2023-03-07T04:48:39.917Z,8.20
2023-03-07T04:51:06.922Z,9.00
2023-03-07T04:53:33.656Z,8.90
2023-03-07T04:56:02.078Z,7.97
2023-03-07T04:58:29.780Z,9.73
2023-03-07T05:00:57.475Z,7.90
2023-03-07T05:03:26.157Z,7.73
2023-03-07T05:05:53.098Z,8.80
2023-03-07T05:08:21.234Z,7.43
2023-03-07T05:10:48.123Z,11.33
2023-03-07T05:13:14.951Z,8.10
2023-03-07T05:15:41.757Z,8.43
2023-03-07T05:18:08.472Z,8.73
2023-03-07T05:20:35.348Z,8.40
2023-03-07T05:23:02.047Z,8.20
2023-03-07T05:25:28.832Z,8.07
2023-03-07T05:27:55.639Z,6.73
2023-03-07T05:30:22.398Z,8.47
2023-03-07T05:32:49.640Z,9.13
2023-03-07T05:35:16.614Z,7.17
2023-03-07T05:37:43.351Z,8.97
2023-03-07T05:40:10.970Z,9.47
2023-03-07T05:42:38.032Z,10.70
2023-03-07T05:45:06.048Z,14.20
2023-03-07T05:47:32.979Z,12.93
2023-03-07T05:49:59.901Z,12.00
2023-03-07T05:52:27.647Z,9.13
2023-03-07T05:54:54.683Z,8.60
2023-03-07T05:57:22.666Z,11.00
2023-03-07T05:59:49.603Z,12.37
2023-03-07T06:02:16.367Z,9.37
2023-03-07T06:04:44.118Z,9.63
2023-03-07T06:07:10.833Z,9.37
2023-03-07T06:09:37.562Z,14.13
2023-03-07T06:12:04.705Z,16.60
2023-03-07T06:14:32.638Z,11.53
2023-03-07T06:16:59.451Z,17.47
2023-03-07T06:19:26.282Z,16.40
2023-03-07T06:21:53.001Z,20.83
2023-03-07T06:24:19.754Z,12.97
2023-03-07T06:26:46.675Z,25.40
2023-03-07T06:29:13.696Z,17.90
2023-03-07T06:31:40.557Z,15.10
2023-03-07T06:34:08.473Z,11.67
2023-03-07T06:36:35.376Z,10.93
2023-03-07T06:39:03.330Z,9.60
2023-03-07T06:41:30.180Z,11.83
2023-03-07T06:43:58.484Z,7.67
2023-03-07T06:46:25.574Z,7.10
2023-03-07T06:48:52.334Z,9.27
2023-03-07T06:51:19.188Z,6.47
2023-03-07T06:53:45.962Z,8.50
2023-03-07T06:56:12.952Z,11.07
2023-03-07T06:58:39.764Z,11.57
2023-03-07T07:01:06.687Z,10.37
2023-03-07T07:03:33.432Z,7.67
2023-03-07T07:06:03.088Z,7.23
2023-03-07T07:08:29.895Z,10.00
2023-03-07T07:10:59.307Z,8.93
2023-03-07T07:13:26.048Z,14.53
2023-03-07T07:15:53.101Z,7.20
2023-03-07T07:18:19.836Z,8.07
2023-03-07T07:20:54.497Z,13.80
2023-03-07T07:23:21.280Z,7.23
2023-03-07T07:25:48.093Z,8.17
2023-03-07T07:28:14.836Z,11.20
2023-03-07T07:30:41.551Z,8.83
2023-03-07T07:33:08.430Z,9.63
2023-03-07T07:35:35.366Z,8.37
2023-03-07T07:38:02.139Z,9.40
2023-03-07T07:40:28.993Z,10.00
2023-03-07T07:42:55.829Z,16.47
2023-03-07T07:45:22.978Z,12.20
2023-03-07T07:47:50.750Z,12.27
2023-03-07T07:50:18.938Z,11.63
2023-03-07T07:52:46.351Z,11.87
2023-03-07T07:55:14.600Z,17.33
2023-03-07T07:57:42.252Z,12.30
2023-03-07T08:00:10.962Z,13.37
2023-03-07T08:02:38.500Z,13.93
2023-03-07T08:05:12.666Z,10.03
2023-03-07T08:07:39.428Z,12.30
2023-03-07T08:10:06.945Z,17.63
2023-03-07T08:12:33.666Z,9.87
2023-03-07T08:15:07.132Z,12.93
2023-03-07T08:17:33.875Z,13.53
2023-03-07T08:20:03.458Z,10.03
2023-03-07T08:22:30.381Z,9.67
2023-03-07T08:24:57.053Z,7.87
2023-03-07T08:27:23.831Z,13.83
2023-03-07T08:29:50.878Z,8.30
2023-03-07T08:32:17.628Z,10.80
2023-03-07T08:34:44.535Z,6.57
2023-03-07T08:37:11.312Z,8.47
2023-03-07T08:39:38.109Z,8.83
2023-03-07T08:42:05.232Z,6.20
2023-03-07T08:44:32.052Z,10.33
2023-03-07T08:46:58.855Z,6.37
2023-03-07T08:49:25.753Z,7.07
2023-03-07T08:51:52.572Z,9.73
2023-03-07T08:54:19.313Z,6.50
2023-03-07T08:56:45.982Z,7.33
2023-03-07T08:59:12.663Z,5.87
2023-03-07T09:01:41.149Z,7.20
2023-03-07T09:04:08.043Z,7.23
2023-03-07T09:06:34.901Z,9.57
2023-03-07T09:09:01.621Z,6.60
2023-03-07T09:11:28.340Z,8.63
2023-03-07T09:13:55.102Z,6.27
2023-03-07T09:16:22.466Z,7.17
2023-03-07T09:18:49.562Z,6.83
2023-03-07T09:21:16.379Z,6.97
2023-03-07T09:23:43.980Z,6.37
2023-03-07T09:26:13.093Z,5.63
2023-03-07T09:28:39.960Z,7.20
2023-03-07T09:31:08.336Z,6.03
2023-03-07T09:33:35.173Z,6.03
2023-03-07T09:36:10.549Z,9.10
2023-03-07T09:38:38.279Z,8.07
2023-03-07T09:41:30.327Z,6.60
2023-03-07T09:44:38.996Z,6.50
2023-03-07T09:47:24.369Z,7.80
2023-03-07T09:49:52.436Z,6.93
2023-03-07T09:52:23.008Z,8.63
2023-03-07T09:54:55.522Z,9.27
2023-03-07T09:57:29.912Z,7.47
2023-03-07T10:00:01.433Z,10.13
2023-03-07T10:02:49.990Z,7.90
2023-03-07T10:05:25.767Z,9.17
2023-03-07T10:07:54.303Z,6.23
2023-03-07T10:10:25.451Z,7.90
2023-03-07T10:13:00.544Z,7.33
2023-03-07T10:15:48.344Z,7.60
2023-03-07T10:18:32.703Z,4.77
2023-03-07T10:21:11.623Z,7.57
2023-03-07T10:23:56.867Z,8.27
2023-03-07T10:27:04.419Z,7.60
2023-03-07T10:29:39.164Z,7.67
2023-03-07T10:32:14.768Z,6.77
2023-03-07T10:34:41.698Z,8.63
2023-03-07T10:37:19.203Z,6.93
2023-03-07T10:39:54.380Z,8.13
2023-03-07T10:42:23.812Z,4.70
2023-03-07T10:44:51.735Z,6.63
2023-03-07T10:47:27.951Z,7.37
2023-03-07T10:50:17.299Z,10.77
2023-03-07T10:52:53.474Z,7.13
2023-03-07T10:55:30.287Z,7.67
2023-03-07T10:58:26.100Z,5.47
2023-03-07T11:01:11.032Z,7.90
2023-03-07T11:04:23.051Z,10.23
2023-03-07T11:06:53.072Z,7.17
2023-03-07T11:09:27.378Z,8.30
2023-03-07T11:12:06.285Z,8.83
2023-03-07T11:14:51.136Z,9.53
2023-03-07T11:17:27.175Z,6.47
2023-03-07T11:19:55.585Z,6.00
2023-03-07T11:22:35.783Z,9.73
2023-03-07T11:25:08.778Z,7.00
2023-03-07T11:27:39.974Z,9.27
2023-03-07T11:30:19.791Z,8.73
2023-03-07T11:33:05.335Z,8.20
2023-03-07T11:36:15.242Z,6.03
2023-03-07T11:38:56.793Z,5.37
2023-03-07T11:41:46.054Z,10.33
2023-03-07T11:44:33.221Z,7.90
2023-03-07T11:47:21.843Z,7.90
2023-03-07T11:50:27.650Z,6.90
2023-03-07T11:53:28.435Z,6.93
2023-03-07T11:56:07.156Z,7.13
2023-03-07T11:59:00.647Z,8.43
2023-03-07T12:01:58.522Z,7.43
2023-03-07T12:04:31.000Z,4.73
2023-03-07T12:07:21.287Z,6.50
2023-03-07T12:09:57.831Z,8.00
2023-03-07T12:12:56.824Z,7.93
2023-03-07T12:15:51.876Z,4.97
2023-03-07T12:18:21.880Z,8.27
2023-03-07T12:21:31.424Z,4.87
2023-03-07T12:24:14.520Z,6.60
2023-03-07T12:26:49.774Z,4.93
2023-03-07T12:29:20.987Z,8.70
2023-03-07T12:31:52.596Z,7.03
2023-03-07T12:34:36.374Z,4.07
2023-03-07T12:37:12.567Z,14.20
2023-03-07T12:40:04.277Z,8.40
2023-03-07T12:42:51.319Z,12.43
2023-03-07T12:45:21.162Z,8.23
2023-03-07T12:47:53.973Z,10.77
2023-03-07T12:50:45.977Z,7.60
2023-03-07T12:53:37.238Z,7.67
2023-03-07T12:56:22.183Z,8.60
2023-03-07T12:59:07.487Z,7.30
2023-03-07T13:02:04.580Z,12.27
2023-03-07T13:04:39.417Z,7.97
2023-03-07T13:07:20.104Z,6.63
2023-03-07T13:09:48.999Z,9.33
2023-03-07T13:12:25.850Z,6.63
2023-03-07T13:14:52.626Z,9.07
2023-03-07T13:17:31.733Z,9.20
2023-03-07T13:20:00.763Z,4.63
2023-03-07T13:22:27.424Z,6.53
2023-03-07T13:24:55.712Z,11.90
2023-03-07T13:27:45.244Z,10.67
2023-03-07T13:30:12.218Z,5.03
2023-03-07T13:32:51.268Z,9.20
2023-03-07T13:35:39.076Z,4.33
2023-03-07T13:38:24.213Z,4.50
2023-03-07T13:40:59.069Z,6.43
2023-03-07T13:43:28.122Z,4.03
2023-03-07T13:46:02.922Z,5.37
2023-03-07T13:48:32.625Z,9.37
2023-03-07T13:51:00.151Z,5.27
2023-03-07T13:53:46.614Z,6.70
2023-03-07T13:56:25.037Z,7.23
2023-03-07T13:58:59.229Z,8.63
2023-03-07T14:01:58.005Z,5.33
2023-03-07T14:04:40.445Z,8.13
2023-03-07T14:07:39.790Z,2.87
2023-03-07T14:10:23.112Z,2.13
2023-03-07T14:13:15.127Z,3.20
2023-03-07T14:16:07.749Z,11.47
2023-03-07T14:18:48.575Z,6.80
2023-03-07T14:21:51.508Z,4.13
2023-03-07T14:24:57.453Z,4.73
2023-03-07T14:27:24.269Z,5.90
2023-03-07T14:29:57.067Z,5.07
2023-03-07T14:32:28.541Z,5.93
2023-03-07T14:34:56.124Z,9.37
2023-03-07T14:37:30.812Z,5.77
2023-03-07T14:40:19.787Z,4.03
2023-03-07T14:42:59.695Z,7.47
2023-03-07T14:45:40.859Z,4.83
2023-03-07T14:48:26.173Z,11.03
2023-03-07T14:50:55.379Z,6.83
2023-03-07T14:53:25.867Z,3.23
2023-03-07T14:56:49.051Z,8.50
2023-03-07T14:59:28.151Z,2.57
2023-03-07T15:02:01.538Z,2.60
2023-03-07T15:04:30.920Z,3.17
2023-03-07T15:06:59.111Z,5.37
2023-03-07T15:09:26.554Z,2.57
2023-03-07T15:12:25.901Z,2.17
2023-03-07T15:14:59.442Z,3.23
2023-03-07T15:17:29.650Z,9.37
2023-03-07T15:20:09.252Z,4.33
2023-03-07T15:22:39.575Z,4.83
2023-03-07T15:25:16.838Z,6.87
2023-03-07T15:27:43.679Z,6.93
2023-03-07T15:30:23.745Z,5.57
2023-03-07T15:33:13.511Z,5.80
2023-03-07T15:35:40.403Z,7.20
2023-03-07T15:38:23.385Z,8.57
2023-03-07T15:40:50.305Z,7.47
2023-03-07T15:47:14.968Z,8.47
2023-03-07T15:49:46.153Z,7.97
2023-03-07T15:52:32.344Z,7.73
2023-03-07T15:55:02.107Z,9.90
2023-03-07T15:57:37.041Z,10.60
2023-03-07T16:00:16.567Z,11.47
2023-03-07T16:02:46.337Z,9.33
2023-03-07T16:05:19.310Z,7.57
2023-03-07T16:07:46.817Z,8.77
2023-03-07T16:10:13.683Z,6.07
2023-03-07T16:12:46.168Z,9.77
2023-03-07T16:15:22.745Z,8.40
2023-03-07T16:17:53.345Z,8.33
2023-03-07T16:20:26.616Z,9.97
2023-03-07T16:22:53.904Z,9.17
2023-03-07T16:25:22.341Z,9.90
2023-03-07T16:27:56.485Z,6.70
2023-03-07T16:30:25.581Z,11.00
2023-03-07T16:32:52.536Z,9.93
2023-03-07T16:35:25.283Z,7.87
2023-03-07T16:37:55.374Z,9.37
2023-03-07T16:40:23.056Z,7.73
2023-03-07T16:42:50.735Z,9.03
2023-03-07T16:45:26.796Z,8.40
2023-03-07T16:47:56.032Z,10.27
2023-03-07T16:50:26.592Z,8.43
2023-03-07T16:52:53.626Z,6.80
2023-03-07T16:55:21.378Z,9.33
2023-03-07T16:57:54.667Z,8.97
2023-03-07T17:00:24.634Z,7.93
2023-03-07T17:02:53.820Z,8.83
2023-03-07T17:05:26.865Z,6.80
2023-03-07T17:07:55.468Z,8.37
2023-03-07T17:10:23.768Z,7.47
2023-03-07T17:12:51.150Z,9.30
2023-03-07T17:15:21.793Z,7.57
2023-03-07T17:17:48.848Z,8.77
2023-03-07T17:20:22.647Z,6.37
2023-03-07T17:22:53.886Z,8.33
2023-03-07T17:25:22.105Z,10.13
2023-03-07T17:27:53.466Z,7.60
2023-03-07T17:30:29.222Z,9.50
2023-03-07T17:32:56.824Z,10.20
2023-03-07T17:35:24.026Z,10.67
2023-03-07T17:37:53.014Z,18.53
2023-03-07T17:40:21.461Z,14.47
2023-03-07T17:42:50.817Z,19.23
2023-03-07T17:45:18.053Z,22.53
2023-03-07T17:47:45.026Z,13.33
2023-03-07T17:50:12.435Z,13.30
2023-03-07T17:52:39.354Z,24.20
2023-03-07T17:55:09.805Z,17.37
2023-03-07T17:57:36.728Z,18.67
2023-03-07T18:00:07.182Z,16.53
2023-03-07T18:02:35.130Z,11.60
2023-03-07T18:05:02.001Z,12.33
2023-03-07T18:07:28.880Z,10.80
2023-03-07T18:10:07.234Z,12.33
2023-03-07T18:12:35.828Z,12.13
2023-03-07T18:15:02.660Z,14.93
2023-03-07T18:17:38.477Z,11.67
2023-03-07T18:20:15.961Z,9.53
2023-03-07T18:22:43.226Z,9.77
2023-03-07T18:25:13.152Z,9.37
2023-03-07T18:27:40.221Z,10.30
2023-03-07T18:30:07.596Z,13.60
2023-03-07T18:32:34.582Z,12.87
2023-03-07T18:35:01.481Z,12.23
2023-03-07T18:37:28.805Z,10.93
2023-03-07T18:39:55.991Z,9.73
2023-03-07T18:42:22.919Z,10.63
2023-03-07T18:44:49.910Z,11.93
2023-03-07T18:47:17.038Z,14.60
2023-03-07T18:49:43.928Z,11.43
2023-03-07T18:52:10.770Z,10.97
2023-03-07T18:54:37.698Z,13.13
2023-03-07T18:57:04.573Z,12.20
2023-03-07T18:59:31.324Z,14.33
2023-03-07T19:02:02.868Z,19.33
2023-03-07T19:04:31.444Z,19.90
2023-03-07T19:06:59.706Z,12.47
2023-03-07T19:09:26.836Z,9.50
2023-03-07T19:11:53.840Z,12.27
2023-03-07T19:14:21.800Z,6.20
2023-03-07T19:16:48.634Z,9.80
2023-03-07T19:19:15.704Z,8.47
2023-03-07T19:21:42.651Z,10.37
2023-03-07T19:24:11.762Z,7.63
2023-03-07T19:26:38.866Z,10.00
2023-03-07T19:29:05.864Z,10.43
2023-03-07T19:31:33.506Z,8.07
2023-03-07T19:34:02.900Z,10.33
2023-03-07T19:36:32.113Z,13.43
2023-03-07T19:39:00.025Z,12.20
2023-03-07T19:41:29.111Z,11.27
2023-03-07T19:43:57.743Z,12.80
2023-03-07T19:46:25.032Z,9.43
2023-03-07T19:48:51.890Z,9.90
2023-03-07T19:51:22.627Z,10.53
2023-03-07T19:53:50.299Z,9.57
2023-03-07T19:56:24.408Z,7.43
2023-03-07T19:58:51.509Z,8.20
2023-03-07T20:01:20.361Z,9.20
2023-03-07T20:03:48.156Z,6.50
2023-03-07T20:06:19.738Z,6.57
2023-03-07T20:08:48.178Z,6.63
2023-03-07T20:11:19.207Z,6.60
2023-03-07T20:13:46.773Z,9.67
2023-03-07T20:16:15.381Z,13.10
2023-03-07T20:18:42.136Z,7.60
2023-03-07T20:21:11.936Z,7.53
2023-03-07T20:23:39.212Z,7.60
2023-03-07T20:26:18.037Z,6.37
2023-03-07T20:28:45.399Z,7.23
2023-03-07T20:31:13.288Z,7.30
2023-03-07T20:33:45.442Z,7.83
2023-03-07T20:36:24.415Z,13.63
2023-03-07T20:38:59.882Z,10.37
2023-03-07T20:41:29.962Z,8.13
2023-03-07T20:44:03.461Z,11.77
2023-03-07T20:46:31.573Z,10.00
2023-03-07T20:49:00.353Z,9.50
2023-03-07T20:51:30.025Z,7.67
2023-03-07T20:54:05.723Z,10.23
2023-03-07T20:56:34.948Z,8.87
2023-03-07T20:59:02.165Z,11.73
2023-03-07T21:01:31.273Z,7.93
2023-03-07T21:04:08.072Z,7.17
2023-03-07T21:06:36.371Z,9.70
2023-03-07T21:09:07.878Z,12.97
2023-03-07T21:11:36.766Z,11.43
2023-03-07T21:14:03.658Z,14.57
2023-03-07T21:16:31.180Z,17.80
2023-03-07T21:19:01.610Z,13.80
2023-03-07T21:21:30.446Z,19.67
2023-03-07T21:23:57.500Z,10.40
2023-03-07T21:26:29.791Z,14.63
2023-03-07T21:28:57.643Z,12.20
2023-03-07T21:31:25.784Z,13.97
2023-03-07T21:33:57.548Z,10.77
2023-03-07T21:36:27.138Z,14.67
2023-03-07T21:38:54.763Z,18.13
2023-03-07T21:41:27.681Z,16.63
2023-03-07T21:43:56.315Z,10.67
2023-03-07T21:46:24.183Z,9.57
2023-03-07T21:48:51.168Z,9.03
2023-03-07T21:51:18.594Z,17.30
2023-03-07T21:53:45.509Z,19.23
2023-03-07T21:56:16.826Z,18.67
2023-03-07T21:58:46.699Z,15.30
2023-03-07T22:01:23.559Z,11.90
2023-03-07T22:03:54.953Z,11.57
2023-03-07T22:06:23.138Z,15.80
2023-03-07T22:08:49.923Z,10.20
2023-03-07T22:11:16.810Z,11.87
2023-03-07T22:13:43.729Z,11.37
2023-03-07T22:16:13.406Z,11.90
2023-03-07T22:18:40.791Z,11.00
2023-03-07T22:21:14.056Z,13.63
2023-03-07T22:23:41.421Z,10.07
2023-03-07T22:26:10.113Z,12.20
2023-03-07T22:28:37.270Z,9.17
2023-03-07T22:31:12.324Z,13.57
2023-03-07T22:33:40.371Z,9.67
2023-03-07T22:36:08.544Z,10.43
2023-03-07T22:38:35.601Z,11.67
2023-03-07T22:41:14.232Z,10.53
2023-03-07T22:43:41.399Z,10.03
2023-03-07T22:46:09.183Z,9.80
2023-03-07T22:48:36.616Z,8.83
2023-03-07T22:51:03.721Z,11.17
2023-03-07T22:53:32.549Z,10.73
2023-03-07T22:56:00.281Z,10.63
2023-03-07T22:58:28.260Z,9.23
2023-03-07T23:00:55.225Z,10.10
2023-03-07T23:03:23.525Z,9.40
2023-03-07T23:05:50.483Z,12.07
2023-03-07T23:08:21.338Z,10.53
2023-03-07T23:10:48.261Z,11.63
2023-03-07T23:13:17.047Z,8.60
2023-03-07T23:15:44.046Z,11.10
2023-03-07T23:18:10.851Z,8.97
2023-03-07T23:20:38.931Z,10.67
2023-03-07T23:23:06.405Z,10.87
2023-03-07T23:25:33.536Z,10.20
2023-03-07T23:28:00.454Z,12.70
2023-03-07T23:30:27.298Z,13.20
2023-03-07T23:32:55.122Z,11.93
2023-03-07T23:35:22.011Z,12.30
2023-03-07T23:37:48.821Z,12.10
2023-03-07T23:40:15.702Z,13.00
2023-03-07T23:42:42.477Z,11.40
2023-03-07T23:45:09.622Z,14.67
2023-03-07T23:47:36.396Z,9.87
2023-03-07T23:50:03.612Z,12.50
2023-03-07T23:52:30.412Z,10.37
2023-03-07T23:54:57.202Z,11.00
2023-03-07T23:57:24.061Z,8.57
2023-03-07T23:59:50.924Z,9.57
